Fairport, New York
Current Conditions -  °F | °C
As of 2:54 AM on Thursday 29 Jan 2015 (Local Time) from KROC Reporting Station
Few Clouds Few Clouds  
Wind Chill: -8°   Ceiling: Unl
Heat Index:   Visibility: 10mi
Dew Point: -3°   Wind: 5mph
Humidity: 80%   Direction: 250°WSW
Pressure: 30.27"   Gusts: NA
Location:  43.1°N, 77.44°W
Report Text: KROC 290754Z 25004KT 10SM FEW250 M17/M19 A3027 RMK AO2 SLP265 T11671194
Loading
Personal Weather Stations






























Interactive Weather Map New forecast layout! Learn more

10-Day Weather Forecast

Advertisements
Track Severe Weather on mobile